createdAt,value
2018-11-03T00:00:55.496Z,29.63
2018-11-03T00:03:23.376Z,29.67
2018-11-03T00:05:51.345Z,25.43
2018-11-03T00:08:19.197Z,26.43
2018-11-03T00:10:47.036Z,29.00
2018-11-03T00:13:14.947Z,27.10
2018-11-03T00:15:43.809Z,27.57
2018-11-03T00:18:11.691Z,26.73
2018-11-03T00:20:39.561Z,28.40
2018-11-03T00:23:07.984Z,28.70
2018-11-03T00:25:35.912Z,28.10
2018-11-03T00:28:03.777Z,26.33
2018-11-03T00:30:31.612Z,27.27
2018-11-03T00:32:59.523Z,27.03
2018-11-03T00:35:27.677Z,26.70
2018-11-03T00:37:55.773Z,26.13
2018-11-03T00:40:23.689Z,25.20
2018-11-03T00:42:51.590Z,25.60
2018-11-03T00:45:20.470Z,25.60
2018-11-03T00:47:49.336Z,25.50
2018-11-03T00:50:17.239Z,24.57
2018-11-03T00:52:45.169Z,25.80
2018-11-03T00:55:13.548Z,25.37
2018-11-03T00:57:42.896Z,25.07
2018-11-03T01:00:12.256Z,25.40
2018-11-03T01:02:40.833Z,24.30
2018-11-03T01:05:09.198Z,24.17
2018-11-03T01:07:37.972Z,25.50
2018-11-03T01:10:05.936Z,24.90
2018-11-03T01:12:34.249Z,24.50
2018-11-03T01:15:02.108Z,24.30
2018-11-03T01:17:30.015Z,27.13
2018-11-03T01:19:57.853Z,27.00
2018-11-03T01:22:25.764Z,39.27
2018-11-03T01:24:53.736Z,29.10
2018-11-03T01:27:21.696Z,25.17
2018-11-03T01:29:49.572Z,27.30
2018-11-03T01:32:17.517Z,26.20
2018-11-03T01:34:45.403Z,26.97
2018-11-03T01:37:13.245Z,27.03
2018-11-03T01:39:41.113Z,24.57
2018-11-03T01:42:09.008Z,23.80
2018-11-03T01:44:36.944Z,23.43
2018-11-03T01:47:04.900Z,25.40
2018-11-03T01:49:32.745Z,24.00
2018-11-03T01:52:00.688Z,24.80
2018-11-03T01:54:28.649Z,23.80
2018-11-03T01:56:56.565Z,22.07
2018-11-03T01:59:24.500Z,22.50
2018-11-03T02:01:52.459Z,23.30
2018-11-03T02:04:20.348Z,22.00
2018-11-03T02:06:48.267Z,21.20
2018-11-03T02:09:16.164Z,22.63
2018-11-03T02:11:44.068Z,23.00
2018-11-03T02:14:11.940Z,22.97
2018-11-03T02:16:39.829Z,22.70
2018-11-03T02:19:07.676Z,24.37
2018-11-03T02:21:35.597Z,24.50
2018-11-03T02:24:03.525Z,25.20
2018-11-03T02:26:31.367Z,23.03
2018-11-03T02:28:59.268Z,23.13
2018-11-03T02:31:27.128Z,23.33
2018-11-03T02:33:55.013Z,24.83
2018-11-03T02:36:22.873Z,23.67
2018-11-03T02:38:50.780Z,22.80
2018-11-03T02:41:18.692Z,24.20
2018-11-03T02:43:47.258Z,23.77
2018-11-03T02:46:15.212Z,23.23
2018-11-03T02:48:43.104Z,22.67
2018-11-03T02:51:11.008Z,25.47
2018-11-03T02:53:38.911Z,24.40
2018-11-03T02:56:06.872Z,22.40
2018-11-03T02:58:34.772Z,22.27
2018-11-03T03:01:02.668Z,22.57
2018-11-03T03:03:30.550Z,21.27
2018-11-03T03:05:58.392Z,21.17
2018-11-03T03:08:26.323Z,21.57
2018-11-03T03:10:54.197Z,20.97
2018-11-03T03:13:22.189Z,20.63
2018-11-03T03:15:50.073Z,22.00
2018-11-03T03:18:17.988Z,20.67
2018-11-03T03:20:45.924Z,20.67
2018-11-03T03:23:13.892Z,20.87
2018-11-03T03:25:42.749Z,21.30
2018-11-03T03:28:10.628Z,21.20
2018-11-03T03:30:38.496Z,20.60
2018-11-03T03:33:06.356Z,20.60
2018-11-03T03:35:35.261Z,20.73
2018-11-03T03:38:03.092Z,20.57
2018-11-03T03:40:31.027Z,19.73
2018-11-03T03:42:59.096Z,20.93
2018-11-03T03:45:27.158Z,20.70
2018-11-03T03:47:55.025Z,20.10
2018-11-03T03:50:22.928Z,20.37
2018-11-03T03:52:50.851Z,19.93
2018-11-03T03:55:18.679Z,20.00
2018-11-03T03:57:46.586Z,18.63
2018-11-03T04:00:15.428Z,19.03
2018-11-03T04:02:43.316Z,19.80
2018-11-03T04:05:11.196Z,19.40
2018-11-03T04:07:39.164Z,19.70
2018-11-03T04:10:07.564Z,20.07
2018-11-03T04:12:35.489Z,20.47
2018-11-03T04:15:03.385Z,18.87
2018-11-03T04:17:31.243Z,19.20
2018-11-03T04:19:59.122Z,17.77
2018-11-03T04:22:27.048Z,17.57
2018-11-03T04:24:55.959Z,18.77
2018-11-03T04:27:23.846Z,18.70
2018-11-03T04:29:51.737Z,20.10
2018-11-03T04:32:19.656Z,19.60
2018-11-03T04:34:47.519Z,17.20
2018-11-03T04:37:15.425Z,18.10
2018-11-03T04:39:43.376Z,17.93
2018-11-03T04:42:11.219Z,18.27
2018-11-03T04:44:39.133Z,19.43
2018-11-03T04:47:07.027Z,19.57
2018-11-03T04:49:34.948Z,21.13
2018-11-03T04:52:02.796Z,19.13
2018-11-03T04:54:31.700Z,18.37
2018-11-03T04:56:59.580Z,18.43
2018-11-03T04:59:27.412Z,19.17
2018-11-03T05:01:55.300Z,17.63
2018-11-03T05:04:23.143Z,17.73
2018-11-03T05:06:51.045Z,18.37
2018-11-03T05:09:18.920Z,18.60
2018-11-03T05:11:47.797Z,19.27
2018-11-03T05:14:15.648Z,18.50
2018-11-03T05:16:44.576Z,18.87
2018-11-03T05:19:13.450Z,20.87
2018-11-03T05:21:41.316Z,17.77
2018-11-03T05:24:09.270Z,20.30
2018-11-03T05:26:37.133Z,19.67
2018-11-03T05:29:05.048Z,19.73
2018-11-03T05:31:32.967Z,18.27
2018-11-03T05:34:00.876Z,19.00
2018-11-03T05:36:28.792Z,19.13
2018-11-03T05:38:56.666Z,17.63
2018-11-03T05:41:24.552Z,18.20
2018-11-03T05:43:52.429Z,19.27
2018-11-03T05:46:20.432Z,19.23
2018-11-03T05:48:48.332Z,18.53
2018-11-03T05:51:16.224Z,18.40
2018-11-03T05:53:44.186Z,20.00
2018-11-03T05:56:12.028Z,19.33
2018-11-03T05:58:39.993Z,19.00
2018-11-03T06:01:07.850Z,18.60
2018-11-03T06:03:35.740Z,19.07
2018-11-03T06:06:03.636Z,18.20
2018-11-03T06:08:31.614Z,19.60
2018-11-03T06:10:59.451Z,19.67
2018-11-03T06:13:27.315Z,20.50
2018-11-03T06:15:55.216Z,19.83
2018-11-03T06:18:23.136Z,19.37
2018-11-03T06:20:52.077Z,19.47
2018-11-03T06:23:20.059Z,19.60
2018-11-03T06:25:47.913Z,19.90
2018-11-03T06:28:15.882Z,22.20
2018-11-03T06:30:43.725Z,21.07
2018-11-03T06:33:11.591Z,22.40
2018-11-03T06:35:39.429Z,22.17
2018-11-03T06:38:07.370Z,20.20
2018-11-03T06:40:35.282Z,21.30
2018-11-03T06:43:03.155Z,21.03
2018-11-03T06:45:30.991Z,21.03
2018-11-03T06:47:59.944Z,22.70
2018-11-03T06:50:27.879Z,21.20
2018-11-03T06:52:55.837Z,21.47
2018-11-03T06:55:23.716Z,21.47
2018-11-03T06:57:51.632Z,20.10
2018-11-03T07:00:19.552Z,20.37
2018-11-03T07:02:47.433Z,21.97
2018-11-03T07:05:15.340Z,19.97
2018-11-03T07:07:43.242Z,20.93
2018-11-03T07:10:11.496Z,21.37
2018-11-03T07:12:39.566Z,20.33
2018-11-03T07:15:07.414Z,20.87
2018-11-03T07:17:36.798Z,21.33
2018-11-03T07:20:05.161Z,20.67
2018-11-03T07:22:33.020Z,20.30
2018-11-03T07:25:00.865Z,20.80
2018-11-03T07:27:28.793Z,21.13
2018-11-03T07:29:56.741Z,20.90
2018-11-03T07:32:24.621Z,20.90
2018-11-03T07:34:52.792Z,19.80
2018-11-03T07:37:20.760Z,19.97
2018-11-03T07:39:48.672Z,21.60
2018-11-03T07:42:16.580Z,20.27
2018-11-03T07:44:44.443Z,21.87
2018-11-03T07:47:12.297Z,20.53
2018-11-03T07:49:40.168Z,21.67
2018-11-03T07:52:08.008Z,20.85
2018-11-03T07:54:35.948Z,20.73
2018-11-03T07:57:03.800Z,21.00
2018-11-03T07:59:31.696Z,20.77
2018-11-03T08:01:59.632Z,19.90
2018-11-03T08:04:27.592Z,20.87
2018-11-03T08:06:55.471Z,21.53
2018-11-03T08:09:23.376Z,20.80
2018-11-03T08:11:51.296Z,20.37
2018-11-03T08:14:19.229Z,20.40
2018-11-03T08:16:47.091Z,20.00
2018-11-03T08:19:14.976Z,19.27
2018-11-03T08:21:42.834Z,19.90
2018-11-03T08:24:10.711Z,20.77
2018-11-03T08:26:38.564Z,19.17
2018-11-03T08:29:07.473Z,20.27
2018-11-03T08:31:35.406Z,21.27
2018-11-03T08:34:03.345Z,22.13
2018-11-03T08:36:31.267Z,20.57
2018-11-03T08:38:59.136Z,19.03
2018-11-03T08:41:27.051Z,18.87
2018-11-03T08:43:54.940Z,18.77
2018-11-03T08:46:22.872Z,17.70
2018-11-03T08:48:50.957Z,17.80
2018-11-03T08:51:19.852Z,17.17
2018-11-03T08:53:47.783Z,17.40
2018-11-03T08:56:15.659Z,17.80
2018-11-03T08:58:43.587Z,17.93
2018-11-03T09:01:11.457Z,17.07
2018-11-03T09:03:39.328Z,15.73
2018-11-03T09:06:07.245Z,16.40
2018-11-03T09:08:35.240Z,17.50
2018-11-03T09:11:03.156Z,17.10
2018-11-03T09:13:31.012Z,16.43
2018-11-03T09:15:59.952Z,15.93
2018-11-03T09:18:27.856Z,17.30
2018-11-03T09:20:55.755Z,15.00
2018-11-03T09:23:23.609Z,15.93
2018-11-03T09:25:51.480Z,15.53
2018-11-03T09:28:19.340Z,16.50
2018-11-03T09:30:47.304Z,15.87
2018-11-03T09:33:15.145Z,15.50
2018-11-03T09:35:43.042Z,15.33
2018-11-03T09:38:10.906Z,17.13
2018-11-03T09:40:38.824Z,16.10
2018-11-03T09:43:06.742Z,17.00
2018-11-03T09:45:34.600Z,15.70
2018-11-03T09:48:02.508Z,15.93
2018-11-03T09:50:30.486Z,13.80
2018-11-03T09:52:58.346Z,15.83
2018-11-03T09:55:26.308Z,14.67
2018-11-03T09:57:54.163Z,14.93
2018-11-03T10:00:22.493Z,14.17
2018-11-03T10:02:50.436Z,15.20
2018-11-03T10:05:18.365Z,14.10
2018-11-03T10:07:46.220Z,15.33
2018-11-03T10:10:15.315Z,16.00
2018-11-03T10:12:43.176Z,15.33
2018-11-03T10:15:11.941Z,14.37
2018-11-03T10:17:39.828Z,15.83
2018-11-03T10:20:08.091Z,14.50
2018-11-03T10:22:36.501Z,14.87
2018-11-03T10:25:05.846Z,14.83
2018-11-03T10:27:33.828Z,14.40
2018-11-03T10:30:01.736Z,15.87
2018-11-03T10:32:29.627Z,15.97
2018-11-03T10:34:58.469Z,15.20
2018-11-03T10:37:26.348Z,14.70
2018-11-03T10:39:55.263Z,14.47
2018-11-03T10:42:23.190Z,14.47
2018-11-03T10:44:51.080Z,13.60
2018-11-03T10:47:18.966Z,13.73
2018-11-03T10:49:47.840Z,14.00
2018-11-03T10:52:15.732Z,12.10
2018-11-03T10:54:43.664Z,11.70
2018-11-03T10:57:11.604Z,11.83
2018-11-03T10:59:39.550Z,12.77
2018-11-03T11:02:12.798Z,13.10
2018-11-03T11:04:46.295Z,13.43
2018-11-03T11:07:20.639Z,12.63
2018-11-03T11:09:54.111Z,13.50
2018-11-03T11:12:27.459Z,11.80
2018-11-03T11:14:55.427Z,12.00
2018-11-03T11:17:23.324Z,9.93
2018-11-03T11:19:51.260Z,10.93
2018-11-03T11:22:19.083Z,10.77
2018-11-03T11:24:47.174Z,11.10
2018-11-03T11:27:14.876Z,10.40
2018-11-03T11:29:42.817Z,11.07
2018-11-03T11:32:10.711Z,10.80
2018-11-03T11:34:38.783Z,11.27
2018-11-03T11:37:06.717Z,10.07
2018-11-03T11:39:34.657Z,10.00
2018-11-03T11:42:03.555Z,10.40
2018-11-03T11:44:31.471Z,11.07
2018-11-03T11:46:59.304Z,10.00
2018-11-03T11:49:27.180Z,9.03
2018-11-03T11:51:55.128Z,8.97
2018-11-03T11:54:23.041Z,8.40
2018-11-03T11:56:51.014Z,8.70
2018-11-03T11:59:18.933Z,8.00
2018-11-03T12:01:46.790Z,7.83
2018-11-03T12:04:14.678Z,8.53
2018-11-03T12:06:42.507Z,8.77
2018-11-03T12:09:10.666Z,8.60
2018-11-03T12:11:38.712Z,8.47
2018-11-03T12:14:06.532Z,9.27
2018-11-03T12:16:34.471Z,9.43
2018-11-03T12:19:02.371Z,8.90
2018-11-03T12:21:30.389Z,8.17
2018-11-03T12:23:58.221Z,8.83
2018-11-03T12:26:26.116Z,8.20
2018-11-03T12:28:53.992Z,8.23
2018-11-03T12:31:21.888Z,8.00
2018-11-03T12:33:50.080Z,9.20
2018-11-03T12:36:17.931Z,9.23
2018-11-03T12:38:45.796Z,8.33
2018-11-03T12:41:13.766Z,7.90
2018-11-03T12:43:41.576Z,8.30
2018-11-03T12:46:09.479Z,8.80
2018-11-03T12:48:37.336Z,8.33
2018-11-03T12:51:05.253Z,7.90
2018-11-03T12:53:33.132Z,8.30
2018-11-03T12:56:01.016Z,7.43
2018-11-03T12:58:28.860Z,7.60
2018-11-03T13:00:56.765Z,7.80
2018-11-03T13:03:24.595Z,7.60
2018-11-03T13:05:52.496Z,7.60
2018-11-03T13:08:20.358Z,8.07
2018-11-03T13:10:48.198Z,7.17
2018-11-03T13:13:16.076Z,7.20
2018-11-03T13:15:44.086Z,7.13
2018-11-03T13:18:11.930Z,7.20
2018-11-03T13:20:39.775Z,7.60
2018-11-03T13:23:07.668Z,6.93
2018-11-03T13:25:35.481Z,7.00
2018-11-03T13:28:03.342Z,6.57
2018-11-03T13:30:31.228Z,7.90
2018-11-03T13:32:59.143Z,7.03
2018-11-03T13:35:27.091Z,7.17
2018-11-03T13:37:54.945Z,7.30
2018-11-03T13:40:22.790Z,7.67
2018-11-03T13:42:50.671Z,7.13
2018-11-03T13:45:18.551Z,8.13
2018-11-03T13:47:46.473Z,8.13
2018-11-03T13:50:15.491Z,7.90
2018-11-03T13:52:44.420Z,7.30
2018-11-03T13:55:12.390Z,7.60
2018-11-03T13:57:41.191Z,6.67
2018-11-03T14:00:11.299Z,7.10
2018-11-03T14:02:40.891Z,6.60
2018-11-03T14:05:09.300Z,6.00
2018-11-03T14:07:37.343Z,5.53
2018-11-03T14:10:05.680Z,5.33
2018-11-03T14:12:33.562Z,5.90
2018-11-03T14:15:01.439Z,5.60
2018-11-03T14:17:29.320Z,5.50
2018-11-03T14:19:57.163Z,6.07
2018-11-03T14:22:25.045Z,5.33
2018-11-03T14:24:52.932Z,6.07
2018-11-03T14:27:20.797Z,4.73
2018-11-03T14:29:48.669Z,5.40
2018-11-03T14:32:16.504Z,5.00
2018-11-03T14:34:44.348Z,5.20
2018-11-03T14:37:12.275Z,4.70
2018-11-03T14:39:40.096Z,4.90
2018-11-03T14:42:08.008Z,5.27
2018-11-03T14:44:35.833Z,4.80
2018-11-03T14:47:03.740Z,4.67
2018-11-03T14:49:31.572Z,5.20
2018-11-03T14:51:59.465Z,5.53
2018-11-03T14:54:27.404Z,5.43
2018-11-03T14:56:55.289Z,5.60
2018-11-03T14:59:23.154Z,5.40
2018-11-03T15:01:51.077Z,5.63
2018-11-03T15:04:18.992Z,5.17
2018-11-03T15:06:46.840Z,5.00
2018-11-03T15:09:14.735Z,6.00
2018-11-03T15:11:42.572Z,6.63
2018-11-03T15:14:10.556Z,6.80
2018-11-03T15:16:38.852Z,5.50
2018-11-03T15:19:06.704Z,5.20
2018-11-03T15:21:34.555Z,5.67
2018-11-03T15:24:02.416Z,6.07
2018-11-03T15:26:30.313Z,5.20
2018-11-03T15:28:58.175Z,6.30
2018-11-03T15:31:26.028Z,6.10
2018-11-03T15:33:53.977Z,5.80
2018-11-03T15:36:21.844Z,5.77
2018-11-03T15:38:49.732Z,5.90
2018-11-03T15:41:17.632Z,6.10
2018-11-03T15:43:45.470Z,6.10
2018-11-03T15:46:13.346Z,6.40
2018-11-03T15:48:41.200Z,6.40
2018-11-03T15:51:09.076Z,6.03
2018-11-03T15:53:36.952Z,6.10
2018-11-03T15:56:05.108Z,6.93
2018-11-03T15:58:32.960Z,7.30
2018-11-03T16:01:00.808Z,6.27
2018-11-03T16:03:28.696Z,6.37
2018-11-03T16:05:56.560Z,7.00
2018-11-03T16:08:24.460Z,6.90
2018-11-03T16:10:53.330Z,6.60
2018-11-03T16:13:21.219Z,7.60
2018-11-03T16:15:49.090Z,7.53
2018-11-03T16:18:16.909Z,7.60
2018-11-03T16:20:44.792Z,7.93
2018-11-03T16:23:13.664Z,8.47
2018-11-03T16:25:41.641Z,8.27
2018-11-03T16:28:09.569Z,8.90
2018-11-03T16:30:37.528Z,9.20
2018-11-03T16:33:05.424Z,8.43
2018-11-03T16:35:33.362Z,9.27
2018-11-03T16:38:01.217Z,10.20
2018-11-03T16:40:29.079Z,9.73
2018-11-03T16:42:57.987Z,9.80
2018-11-03T16:45:25.968Z,10.10
2018-11-03T16:47:53.782Z,10.53
2018-11-03T16:50:22.660Z,9.83
2018-11-03T16:52:50.572Z,9.93
2018-11-03T16:55:18.543Z,11.17
2018-11-03T16:57:46.346Z,12.10
2018-11-03T17:00:15.735Z,10.20
2018-11-03T17:02:43.799Z,10.43
2018-11-03T17:05:12.894Z,11.00
2018-11-03T17:07:40.800Z,12.80
2018-11-03T17:10:10.287Z,13.00
2018-11-03T17:12:38.518Z,13.77
2018-11-03T17:15:06.383Z,12.70
2018-11-03T17:17:34.332Z,12.43
2018-11-03T17:20:02.201Z,12.70
2018-11-03T17:22:30.061Z,12.63
2018-11-03T17:24:57.934Z,13.63
2018-11-03T17:27:25.951Z,12.37
2018-11-03T17:29:53.862Z,12.23
2018-11-03T17:32:21.720Z,13.50
2018-11-03T17:34:50.630Z,15.10
2018-11-03T17:37:18.525Z,16.70
2018-11-03T17:39:46.383Z,12.70
2018-11-03T17:42:14.261Z,14.87
2018-11-03T17:44:42.212Z,17.03
2018-11-03T17:47:11.120Z,15.90
2018-11-03T17:49:39.044Z,17.10
2018-11-03T17:52:06.924Z,14.93
2018-11-03T17:54:34.878Z,15.20
2018-11-03T17:57:02.732Z,16.23
2018-11-03T17:59:30.672Z,19.67
2018-11-03T18:01:58.722Z,21.10
2018-11-03T18:04:27.004Z,21.27
2018-11-03T18:06:54.931Z,20.87
2018-11-03T18:09:22.810Z,21.50
2018-11-03T18:11:50.675Z,22.57
2018-11-03T18:14:18.586Z,22.87
2018-11-03T18:16:46.524Z,21.97
2018-11-03T18:19:14.359Z,22.13
2018-11-03T18:21:42.300Z,22.77
2018-11-03T18:24:10.196Z,25.93
2018-11-03T18:26:38.144Z,27.50
2018-11-03T18:29:05.986Z,28.10
2018-11-03T18:31:33.917Z,26.57
2018-11-03T18:34:01.788Z,26.80
2018-11-03T18:36:30.685Z,27.73
2018-11-03T18:38:58.536Z,27.00
2018-11-03T18:41:26.489Z,26.83
2018-11-03T18:43:54.384Z,27.57
2018-11-03T18:46:22.250Z,26.60
2018-11-03T18:48:50.224Z,27.07
2018-11-03T18:51:18.055Z,27.20
2018-11-03T18:53:46.956Z,24.90
2018-11-03T18:56:14.893Z,26.97
2018-11-03T18:58:42.788Z,26.67
2018-11-03T19:01:10.663Z,31.87
2018-11-03T19:03:38.544Z,34.67
2018-11-03T19:06:06.422Z,32.63
2018-11-03T19:08:34.656Z,29.90
2018-11-03T19:11:02.467Z,30.33
2018-11-03T19:13:31.354Z,28.37
2018-11-03T19:15:59.177Z,29.50
2018-11-03T19:18:28.084Z,28.83
2018-11-03T19:20:56.024Z,30.30
2018-11-03T19:23:23.990Z,30.20
2018-11-03T19:25:51.887Z,30.70
2018-11-03T19:28:19.794Z,30.30
2018-11-03T19:30:47.664Z,29.57
2018-11-03T19:33:16.552Z,30.43
2018-11-03T19:35:45.423Z,33.07
2018-11-03T19:38:13.310Z,33.70
2018-11-03T19:40:41.205Z,32.20
2018-11-03T19:43:09.112Z,33.70
2018-11-03T19:45:36.980Z,32.80
2018-11-03T19:48:05.259Z,32.63
2018-11-03T19:50:33.137Z,30.30
2018-11-03T19:53:02.036Z,30.80
2018-11-03T19:55:30.028Z,29.73
2018-11-03T19:57:57.983Z,30.10
2018-11-03T20:00:26.874Z,31.30
2018-11-03T20:02:54.760Z,29.13
2018-11-03T20:05:22.646Z,31.10
2018-11-03T20:07:50.551Z,32.03
2018-11-03T20:10:18.407Z,33.30
2018-11-03T20:12:46.268Z,34.30
2018-11-03T20:15:14.235Z,35.23
2018-11-03T20:17:42.546Z,34.97
2018-11-03T20:20:11.709Z,35.60
2018-11-03T20:22:39.584Z,37.20
2018-11-03T20:25:08.139Z,37.73
2018-11-03T20:27:36.088Z,36.60
2018-11-03T20:30:04.223Z,38.70
2018-11-03T20:32:32.088Z,38.57
2018-11-03T20:34:59.973Z,38.57
2018-11-03T20:37:27.884Z,39.80
2018-11-03T20:39:55.752Z,38.43
2018-11-03T20:42:23.663Z,38.00
2018-11-03T20:44:51.526Z,38.13
2018-11-03T20:47:19.360Z,38.20
2018-11-03T20:49:47.248Z,36.43
2018-11-03T20:52:16.140Z,38.40
2018-11-03T20:54:44.007Z,38.33
2018-11-03T20:57:11.859Z,35.67
2018-11-03T20:59:39.752Z,37.17
2018-11-03T21:02:07.698Z,37.53
2018-11-03T21:04:35.480Z,37.40
2018-11-03T21:07:03.391Z,36.20
2018-11-03T21:09:31.332Z,36.63
2018-11-03T21:12:00.244Z,37.57
2018-11-03T21:14:28.190Z,34.85
2018-11-03T21:16:56.068Z,34.40
2018-11-03T21:19:23.957Z,35.50
2018-11-03T21:21:51.852Z,35.90
2018-11-03T21:24:19.807Z,36.83
2018-11-03T21:26:47.652Z,36.73
2018-11-03T21:29:15.560Z,37.37
2018-11-03T21:31:43.511Z,35.43
2018-11-03T21:34:11.548Z,35.47
2018-11-03T21:36:39.441Z,37.47
2018-11-03T21:39:07.644Z,37.63
2018-11-03T21:41:35.547Z,35.80
2018-11-03T21:44:03.464Z,36.63
2018-11-03T21:46:31.450Z,36.07
2018-11-03T21:48:59.336Z,36.37
2018-11-03T21:51:27.236Z,34.37
2018-11-03T21:53:55.193Z,36.30
2018-11-03T21:56:23.170Z,34.70
2018-11-03T21:58:52.013Z,33.40
2018-11-03T22:01:19.903Z,34.20
2018-11-03T22:03:47.779Z,34.67
2018-11-03T22:06:15.705Z,32.33
2018-11-03T22:08:43.649Z,31.90
2018-11-03T22:11:11.616Z,31.83
2018-11-03T22:13:39.522Z,31.93
2018-11-03T22:16:07.476Z,33.50
2018-11-03T22:18:35.345Z,31.40
2018-11-03T22:21:03.232Z,31.20
2018-11-03T22:23:31.132Z,30.63
2018-11-03T22:25:58.964Z,32.63
2018-11-03T22:28:26.844Z,31.70
2018-11-03T22:30:54.683Z,31.00
2018-11-03T22:33:22.548Z,31.97
2018-11-03T22:35:50.447Z,30.53
2018-11-03T22:38:19.211Z,30.03
2018-11-03T22:40:47.073Z,31.03
2018-11-03T22:43:14.969Z,29.73
2018-11-03T22:45:42.843Z,28.80
2018-11-03T22:48:10.696Z,31.13
2018-11-03T22:50:38.547Z,28.57
2018-11-03T22:53:06.460Z,29.57
2018-11-03T22:55:34.448Z,30.30
2018-11-03T22:58:02.374Z,30.47
2018-11-03T23:00:30.212Z,29.07
2018-11-03T23:02:58.123Z,30.50
2018-11-03T23:05:26.053Z,31.37
2018-11-03T23:07:53.996Z,30.40
2018-11-03T23:10:21.899Z,30.47
2018-11-03T23:12:49.858Z,29.13
2018-11-03T23:15:17.737Z,29.20
2018-11-03T23:17:45.568Z,29.83
2018-11-03T23:20:14.248Z,31.23
2018-11-03T23:22:42.160Z,29.33
2018-11-03T23:25:10.496Z,30.90
2018-11-03T23:27:38.376Z,30.53
2018-11-03T23:30:07.333Z,30.97
2018-11-03T23:32:35.163Z,30.27
2018-11-03T23:35:03.054Z,30.83
2018-11-03T23:37:30.937Z,33.57
2018-11-03T23:39:58.861Z,32.47
2018-11-03T23:42:26.688Z,33.60
2018-11-03T23:44:54.691Z,32.10
2018-11-03T23:47:22.532Z,29.47
2018-11-03T23:49:50.428Z,33.00
2018-11-03T23:52:22.636Z,32.37
2018-11-03T23:54:50.492Z,32.83
2018-11-03T23:57:18.432Z,32.60
2018-11-03T23:59:46.371Z,30.87
